Time;durP1;ratioP1;P1;durP2;ratioP2;P2;SDS_P1;SDS_P2;PMS_P1;PMS_P2;Temp;Humidity;BMP_temperature;BMP_pressure;BME280_temperature;BME280_humidity;BME280_pressure;Samples;Min_cycle;Max_cycle;Signal;HPM_P1;HPM_P2
2023/01/12 00:00:55;;;;;;;7.93;4.95;;;;;;;8.53;72.26;100143.28;5016886;27;96803;-78
2023/01/12 00:03:21;;;;;;;8.63;5.28;;;;;;;8.57;72.38;100152.75;5046335;27;99705;-78
2023/01/12 00:05:47;;;;;;;6.75;4.72;;;;;;;8.51;72.27;100146.81;5053075;27;97521;-78
2023/01/12 00:08:12;;;;;;;6.50;4.60;;;;;;;8.54;72.52;100155.44;5050321;27;101502;-78
2023/01/12 00:10:38;;;;;;;6.78;4.88;;;;;;;8.57;72.53;100157.13;5030473;27;97963;-79
2023/01/12 00:13:03;;;;;;;6.97;5.05;;;;;;;8.54;72.00;100157.22;5055499;27;97741;-78
2023/01/12 00:18:13;;;;;;;6.88;4.32;;;;;;;8.59;72.28;100176.25;5066684;27;98384;-79
2023/01/12 00:20:39;;;;;;;7.65;5.10;;;;;;;8.57;72.26;100164.97;5057862;27;99850;-79
2023/01/12 00:23:05;;;;;;;6.97;5.13;;;;;;;8.57;72.46;100178.91;5051602;27;97677;-78
2023/01/12 00:25:31;;;;;;;7.07;4.50;;;;;;;8.55;72.47;100172.88;5048925;27;100768;-79
2023/01/12 00:27:56;;;;;;;7.80;4.45;;;;;;;8.54;72.07;100178.13;5040551;27;100974;-78
2023/01/12 00:30:22;;;;;;;7.63;4.78;;;;;;;8.57;72.65;100185.91;5033600;27;97272;-78
2023/01/12 00:32:48;;;;;;;7.50;4.45;;;;;;;8.44;72.41;100167.09;5052300;27;97361;-78
2023/01/12 00:35:16;;;;;;;7.05;4.78;;;;;;;8.56;72.17;100186.81;5049356;27;101754;-78
2023/01/12 00:37:41;;;;;;;7.47;4.60;;;;;;;8.57;72.14;100189.38;5057223;27;100994;-78
2023/01/12 00:40:08;;;;;;;7.07;5.03;;;;;;;8.44;72.21;100169.69;5055823;27;97162;-78
2023/01/12 00:45:21;;;;;;;8.43;5.00;;;;;;;8.43;72.10;100186.28;5060402;27;97914;-79
2023/01/12 00:47:46;;;;;;;9.27;4.78;;;;;;;8.54;72.24;100213.00;5044433;27;101638;-79
2023/01/12 00:50:12;;;;;;;9.43;4.97;;;;;;;8.42;72.52;100191.56;5038793;27;96805;-79
2023/01/12 00:52:38;;;;;;;10.15;5.25;;;;;;;8.54;72.26;100215.63;5035481;27;97156;-78
2023/01/12 00:55:04;;;;;;;7.95;4.78;;;;;;;8.53;72.36;100218.28;5048311;27;99787;-78
2023/01/12 00:57:29;;;;;;;9.50;5.55;;;;;;;8.52;72.08;100225.28;5058871;27;101605;-77
2023/01/12 00:59:57;;;;;;;9.10;4.75;;;;;;;8.53;72.56;100232.22;5050212;27;96769;-78
2023/01/12 01:02:23;;;;;;;6.93;4.50;;;;;;;8.46;72.60;100220.19;5043515;27;96866;-78
2023/01/12 01:04:49;;;;;;;7.22;4.70;;;;;;;8.47;72.20;100223.69;5033389;27;101341;-78
2023/01/12 01:07:16;;;;;;;9.48;5.22;;;;;;;8.50;72.35;100229.69;5029311;27;101343;-78
2023/01/12 01:09:43;;;;;;;6.32;4.63;;;;;;;8.48;71.97;100225.41;5025381;27;97395;-78
2023/01/12 01:12:08;;;;;;;9.15;5.20;;;;;;;8.50;72.63;100234.06;5044160;27;97427;-78
2023/01/12 01:14:34;;;;;;;8.55;4.88;;;;;;;8.42;72.11;100222.94;5041628;27;98009;-78
2023/01/12 01:16:59;;;;;;;6.72;4.97;;;;;;;8.50;71.93;100241.94;5043394;27;101595;-78
2023/01/12 01:19:25;;;;;;;7.80;4.55;;;;;;;8.46;72.18;100229.81;5029048;27;97179;-78
2023/01/12 01:21:50;;;;;;;6.90;5.10;;;;;;;8.46;72.40;100229.81;5049107;27;100006;-78
2023/01/12 01:24:16;;;;;;;6.85;4.50;;;;;;;8.36;71.70;100219.56;5051885;27;100940;-78
2023/01/12 01:26:42;;;;;;;9.68;5.90;;;;;;;8.46;72.01;100237.66;5052204;27;101030;-78
2023/01/12 01:29:07;;;;;;;8.15;4.63;;;;;;;8.46;72.23;100245.50;5051001;27;96908;-78
2023/01/12 01:31:33;;;;;;;8.35;4.95;;;;;;;8.47;72.38;100247.25;5049126;27;97375;-79
2023/01/12 01:33:59;;;;;;;11.27;5.68;;;;;;;8.45;71.88;100246.41;5041727;27;98295;-78
2023/01/12 01:36:24;;;;;;;8.40;4.90;;;;;;;8.43;72.03;100245.59;5036337;27;101136;-78
2023/01/12 01:38:50;;;;;;;10.50;5.07;;;;;;;8.41;71.66;100239.53;5044033;27;96776;-78
2023/01/12 01:41:18;;;;;;;5.78;4.20;;;;;;;8.44;71.84;100242.09;5051337;27;97107;-78
2023/01/12 01:44:30;;;;;;;8.50;4.47;;;;;;;8.36;71.37;100235.25;5033147;27;101155;-79
2023/01/12 01:47:07;;;;;;;8.77;4.88;;;;;;;8.43;71.73;100242.97;5052454;27;97810;-78
2023/01/12 01:49:45;;;;;;;10.35;4.95;;;;;;;8.45;71.92;100238.56;5032450;27;96951;-78
2023/01/12 01:52:14;;;;;;;7.30;5.03;;;;;;;8.44;71.46;100226.41;5054107;27;97380;-77
2023/01/12 01:54:53;;;;;;;9.07;4.18;;;;;;;8.43;71.91;100225.50;5069999;27;97964;-78
2023/01/12 01:57:19;;;;;;;9.40;4.35;;;;;;;8.33;71.33;100219.63;5050616;27;101452;-78
2023/01/12 01:59:49;;;;;;;9.30;4.57;;;;;;;8.44;71.72;100232.47;5052755;27;97092;-78
2023/01/12 02:02:15;;;;;;;5.22;3.58;;;;;;;8.39;71.33;100223.88;5057111;27;96893;-78
2023/01/12 02:04:40;;;;;;;8.55;4.05;;;;;;;8.43;71.60;100230.75;5046923;27;101797;-78
2023/01/12 02:07:06;;;;;;;7.05;4.15;;;;;;;8.40;71.59;100228.22;5048089;27;97653;-78
2023/01/12 02:09:32;;;;;;;7.50;4.25;;;;;;;8.41;71.46;100226.44;5044475;27;97305;-78
2023/01/12 02:17:50;;;;;;;8.80;4.55;;;;;;;8.42;71.27;100239.50;5053564;27;101400;-78
2023/01/12 02:20:39;;;;;;;6.57;3.95;;;;;;;8.30;71.66;100216.25;5052060;27;97181;-78
2023/01/12 02:23:26;;;;;;;6.93;4.25;;;;;;;8.43;71.44;100240.34;5058418;27;97440;-79
2023/01/12 02:26:30;;;;;;;9.80;4.18;;;;;;;8.45;71.71;100249.03;5069865;27;97942;-79
2023/01/12 02:29:24;;;;;;;11.10;4.55;;;;;;;8.43;71.38;100238.59;5062500;27;101810;-78
2023/01/12 02:31:52;;;;;;;7.78;4.30;;;;;;;8.43;71.72;100248.19;5047642;27;96901;-78
2023/01/12 02:34:24;;;;;;;7.43;4.10;;;;;;;8.43;70.94;100250.81;5051417;27;96856;-78
2023/01/12 02:36:53;;;;;;;7.57;4.43;;;;;;;8.40;71.35;100241.28;5059161;27;97699;-79
2023/01/12 02:39:19;;;;;;;8.98;4.05;;;;;;;8.44;71.10;100247.31;5067177;27;101337;-78
2023/01/12 02:44:53;;;;;;;8.50;4.35;;;;;;;8.38;71.07;100243.06;5052325;27;96815;-78
2023/01/12 02:47:54;;;;;;;11.20;4.97;;;;;;;8.41;71.21;100242.13;5049874;27;101697;-78
2023/01/12 02:50:34;;;;;;;7.00;4.05;;;;;;;8.37;71.31;100242.19;5018637;27;98468;-79
2023/01/12 02:53:07;;;;;;;7.55;3.85;;;;;;;8.39;70.87;100244.81;5030561;27;97148;-78
2023/01/12 02:55:33;;;;;;;9.77;4.00;;;;;;;8.35;71.18;100235.31;5048183;27;97331;-78
2023/01/12 02:58:00;;;;;;;6.95;3.88;;;;;;;8.41;70.69;100252.59;5062511;27;98152;-77
2023/01/12 03:00:25;;;;;;;7.60;3.80;;;;;;;8.38;70.90;100248.31;5062972;27;97897;-78
2023/01/12 03:02:51;;;;;;;8.80;3.58;;;;;;;8.34;70.91;100241.41;5047816;27;96827;-78
2023/01/12 03:05:25;;;;;;;6.00;4.07;;;;;;;8.30;70.50;100232.81;5029500;27;98251;-77
2023/01/12 03:07:58;;;;;;;9.20;3.80;;;;;;;8.38;70.42;100253.53;5043256;27;98016;-77
2023/01/12 03:10:35;;;;;;;8.88;4.05;;;;;;;8.32;70.84;100241.47;5038142;27;98276;-77
2023/01/12 03:13:05;;;;;;;7.68;4.00;;;;;;;8.36;70.93;100250.09;5044387;27;97802;-78
2023/01/12 03:15:33;;;;;;;9.68;4.43;;;;;;;8.33;70.85;100247.56;5052730;27;97256;-78
2023/01/12 03:18:02;;;;;;;6.78;4.07;;;;;;;8.36;70.65;100250.94;5036885;27;101468;-78
2023/01/12 03:20:32;;;;;;;7.75;4.25;;;;;;;8.41;70.71;100243.03;5034198;27;100882;-79
2023/01/12 03:23:08;;;;;;;10.88;4.70;;;;;;;8.37;70.01;100236.97;5047011;27;98169;-79
2023/01/12 03:25:35;;;;;;;7.68;4.35;;;;;;;8.30;70.28;100239.78;5041236;27;97253;-77
2023/01/12 03:28:02;;;;;;;6.95;4.43;;;;;;;8.26;70.43;100236.41;5050592;27;101209;-78
2023/01/12 03:30:35;;;;;;;7.38;4.88;;;;;;;8.27;70.42;100239.88;5047001;27;100900;-78
2023/01/12 03:33:02;;;;;;;11.13;4.88;;;;;;;8.16;70.41;100237.53;5077421;27;97177;-78
2023/01/12 03:35:32;;;;;;;10.90;5.47;;;;;;;7.97;69.73;100221.47;5059977;27;97083;-77
2023/01/12 03:38:10;;;;;;;8.60;4.63;;;;;;;7.93;70.54;100241.56;5059137;27;101179;-78
2023/01/12 03:40:38;;;;;;;8.10;4.25;;;;;;;7.96;70.48;100234.56;5053110;27;101611;-78
2023/01/12 03:43:26;;;;;;;10.32;4.40;;;;;;;7.99;70.22;100237.94;5042400;27;98387;-77
2023/01/12 03:45:57;;;;;;;10.77;5.50;;;;;;;8.04;70.58;100238.69;5043806;27;98198;-78
2023/01/12 03:48:29;;;;;;;10.25;6.10;;;;;;;8.05;70.39;100243.00;5059406;27;101036;-78
2023/01/12 03:51:00;;;;;;;9.68;5.10;;;;;;;7.66;70.28;100221.34;5056898;27;97436;-77
2023/01/12 03:53:26;;;;;;;9.15;4.85;;;;;;;7.68;71.22;100243.06;5054008;27;97209;-79
2023/01/12 03:55:55;;;;;;;11.20;4.15;;;;;;;7.62;71.17;100253.63;5023126;27;97310;-77
2023/01/12 03:58:22;;;;;;;7.75;4.35;;;;;;;7.58;70.91;100244.16;5020761;27;101578;-78
2023/01/12 04:00:47;;;;;;;12.15;4.75;;;;;;;7.68;71.48;100248.28;5024692;27;100913;-77
2023/01/12 04:03:15;;;;;;;4.95;3.60;;;;;;;7.76;70.75;100258.53;5044990;27;97333;-77
2023/01/12 04:05:41;;;;;;;8.50;4.15;;;;;;;7.67;70.88;100236.97;5044702;27;97159;-78
2023/01/12 04:08:08;;;;;;;6.65;4.22;;;;;;;7.76;70.44;100263.78;5043996;27;98425;-77
2023/01/12 04:10:34;;;;;;;8.27;3.85;;;;;;;7.68;70.41;100248.28;5052783;27;99262;-79
2023/01/12 04:12:59;;;;;;;8.90;4.70;;;;;;;7.82;69.75;100258.41;5033356;27;97026;-77
2023/01/12 04:15:25;;;;;;;8.73;4.07;;;;;;;7.81;69.62;100264.53;5052971;27;97164;-78
2023/01/12 04:17:51;;;;;;;8.73;4.60;;;;;;;7.67;69.80;100264.84;5065402;27;97451;-78
2023/01/12 04:20:17;;;;;;;9.30;4.72;;;;;;;7.41;69.69;100245.38;5047077;27;101450;-77
2023/01/12 04:22:43;;;;;;;8.57;4.10;;;;;;;7.45;69.90;100257.50;5021267;27;97791;-78
2023/01/12 04:25:10;;;;;;;10.30;5.20;;;;;;;7.25;70.33;100231.81;5040939;27;97498;-77
2023/01/12 04:27:40;;;;;;;10.90;5.40;;;;;;;7.28;70.39;100248.31;5060970;27;97776;-77
2023/01/12 04:30:06;;;;;;;7.45;4.40;;;;;;;7.21;70.25;100253.69;5047450;27;101125;-78
2023/01/12 04:32:32;;;;;;;8.02;4.68;;;;;;;7.28;70.68;100245.72;5035210;27;97078;-79
2023/01/12 04:34:57;;;;;;;7.25;4.60;;;;;;;7.27;70.18;100255.28;5048706;27;97899;-78
2023/01/12 04:37:23;;;;;;;11.02;5.25;;;;;;;7.17;70.52;100251.16;5052895;27;101478;-77
2023/01/12 04:39:48;;;;;;;8.30;5.10;;;;;;;7.16;70.71;100252.06;5066274;27;97402;-77
2023/01/12 04:44:58;;;;;;;8.43;4.57;;;;;;;7.24;70.33;100257.94;5045985;27;97177;-78
2023/01/12 04:47:23;;;;;;;8.70;4.32;;;;;;;7.32;70.16;100266.47;5027994;27;101448;-77
2023/01/12 04:49:49;;;;;;;9.88;4.90;;;;;;;7.34;69.52;100263.84;5040062;27;102239;-78
2023/01/12 04:52:14;;;;;;;10.10;5.63;;;;;;;7.46;69.33;100260.97;5029347;27;97892;-77
2023/01/12 04:54:40;;;;;;;7.50;5.40;;;;;;;7.42;69.42;100262.78;5048905;27;97338;-78
2023/01/12 04:57:05;;;;;;;11.18;5.45;;;;;;;7.22;68.98;100236.25;5044997;27;98011;-77
2023/01/12 04:59:31;;;;;;;7.63;5.57;;;;;;;7.19;69.71;100249.38;5062368;27;97961;-79
2023/01/12 05:01:56;;;;;;;9.33;5.67;;;;;;;7.02;69.90;100242.75;5050249;27;97888;-77
2023/01/12 05:04:22;;;;;;;9.20;5.20;;;;;;;7.06;69.81;100243.53;5068339;27;96805;-78
2023/01/12 05:06:47;;;;;;;8.07;4.93;;;;;;;7.03;69.54;100249.69;5043412;27;98232;-77
2023/01/12 05:11:59;;;;;;;9.05;4.50;;;;;;;6.71;70.08;100224.22;5052432;27;97078;-77
2023/01/12 05:14:25;;;;;;;5.60;4.40;;;;;;;6.86;69.92;100237.88;5028416;27;97823;-78
2023/01/12 05:16:51;;;;;;;7.68;4.38;;;;;;;6.83;69.70;100246.63;5048427;27;101486;-77
2023/01/12 05:19:16;;;;;;;9.23;4.50;;;;;;;6.75;70.05;100245.94;5069008;27;97459;-77
2023/01/12 05:21:42;;;;;;;7.10;4.45;;;;;;;6.91;69.49;100239.50;5029691;27;98127;-79
2023/01/12 05:24:08;;;;;;;7.75;4.53;;;;;;;6.86;69.49;100225.66;5069432;27;97048;-78
2023/01/12 05:26:33;;;;;;;7.03;4.15;;;;;;;6.92;69.13;100230.78;5029276;27;101258;-78
2023/01/12 05:28:59;;;;;;;6.30;4.47;;;;;;;6.89;69.21;100219.53;5050267;27;97475;-78
2023/01/12 05:31:24;;;;;;;8.63;5.15;;;;;;;7.01;68.90;100230.59;5050865;27;97840;-77
2023/01/12 05:33:50;;;;;;;10.57;5.68;;;;;;;7.01;68.45;100216.66;5061755;27;97144;-77
2023/01/12 05:36:16;;;;;;;8.93;4.85;;;;;;;7.01;68.06;100225.38;5044280;27;97545;-78
2023/01/12 05:38:42;;;;;;;8.70;4.90;;;;;;;6.90;68.07;100192.56;5037799;27;101530;-78
2023/01/12 05:41:11;;;;;;;8.30;4.00;;;;;;;7.09;67.83;100217.38;5047066;27;97046;-78
2023/01/12 05:43:49;;;;;;;10.82;4.63;;;;;;;7.12;68.04;100232.97;5045641;27;96902;-78
2023/01/12 05:46:25;;;;;;;9.70;4.55;;;;;;;7.11;67.56;100228.66;5036595;27;101835;-77
2023/01/12 05:48:52;;;;;;;8.13;4.93;;;;;;;7.19;67.25;100225.88;5045472;27;97513;-77
2023/01/12 05:51:18;;;;;;;11.23;5.70;;;;;;;7.11;67.18;100225.19;5043186;27;97021;-78
2023/01/12 05:53:43;;;;;;;9.38;5.07;;;;;;;7.21;67.10;100235.41;5049146;27;97148;-77
2023/01/12 05:56:14;;;;;;;10.55;4.43;;;;;;;7.05;66.91;100205.28;5040413;27;101410;-77
2023/01/12 05:58:40;;;;;;;11.37;4.50;;;;;;;7.28;67.08;100248.31;5051536;27;97613;-78
2023/01/12 06:01:07;;;;;;;10.45;4.78;;;;;;;7.25;66.79;100249.25;5057671;27;97074;-78
2023/01/12 06:03:34;;;;;;;10.93;4.75;;;;;;;7.31;66.77;100250.88;5038150;27;97171;-77
2023/01/12 06:05:59;;;;;;;11.25;4.22;;;;;;;7.30;66.62;100249.13;5043852;27;101276;-77
2023/01/12 06:08:25;;;;;;;10.38;3.95;;;;;;;7.28;66.78;100240.50;5030565;27;101645;-77
2023/01/12 06:10:51;;;;;;;9.48;4.55;;;;;;;7.33;66.93;100241.22;5054775;27;97429;-77
2023/01/12 06:16:04;;;;;;;10.25;4.63;;;;;;;7.18;66.60;100234.59;5064958;27;100215;-78
2023/01/12 06:18:39;;;;;;;9.13;4.53;;;;;;;7.20;66.86;100238.88;5055789;27;97577;-79
2023/01/12 06:21:06;;;;;;;6.70;4.05;;;;;;;7.13;67.00;100226.03;5066254;27;97822;-79
2023/01/12 06:23:31;;;;;;;12.00;5.45;;;;;;;7.14;67.11;100230.34;5061745;27;97448;-79
2023/01/12 06:26:02;;;;;;;9.30;4.65;;;;;;;6.98;66.96;100233.28;5054661;27;101539;-81
2023/01/12 06:28:28;;;;;;;12.45;5.30;;;;;;;7.01;67.21;100228.00;5065123;27;98712;-80
2023/01/12 06:30:55;;;;;;;11.50;5.22;;;;;;;7.07;67.34;100227.00;5056034;27;97334;-78
2023/01/12 06:33:21;;;;;;;12.57;5.00;;;;;;;7.01;66.95;100235.81;5063371;27;96731;-78
2023/01/12 06:35:48;;;;;;;12.57;5.20;;;;;;;6.96;67.07;100231.59;5040441;27;101565;-78
2023/01/12 06:38:13;;;;;;;9.13;4.90;;;;;;;6.99;66.93;100244.56;5047148;27;98511;-78
2023/01/12 06:40:39;;;;;;;10.18;5.00;;;;;;;6.80;66.99;100249.28;5031444;27;97288;-77
2023/01/12 06:43:04;;;;;;;9.82;4.95;;;;;;;6.76;67.55;100242.41;5053076;27;98709;-75
2023/01/12 06:45:30;;;;;;;11.32;5.65;;;;;;;6.71;67.60;100245.09;5048067;27;98011;-75
2023/01/12 06:47:56;;;;;;;10.77;4.47;;;;;;;6.66;67.55;100226.09;5027475;27;101164;-75
2023/01/12 06:50:21;;;;;;;10.45;4.80;;;;;;;6.42;68.30;100208.28;5055516;27;98150;-76
2023/01/12 06:52:47;;;;;;;13.00;5.25;;;;;;;6.47;68.57;100228.19;5041894;27;97559;-76
2023/01/12 06:55:13;;;;;;;13.55;5.88;;;;;;;6.31;68.86;100227.63;5059574;27;98176;-76
2023/01/12 06:57:38;;;;;;;11.30;5.87;;;;;;;6.22;69.46;100225.16;5070101;27;101086;-76
2023/01/12 07:00:05;;;;;;;13.10;6.28;;;;;;;6.16;69.58;100219.19;5033605;27;97302;-77
2023/01/12 07:02:31;;;;;;;11.52;6.85;;;;;;;6.31;69.43;100227.63;5049757;27;96892;-76
2023/01/12 07:04:56;;;;;;;13.57;6.23;;;;;;;6.22;69.55;100230.38;5044404;27;100805;-77
2023/01/12 07:07:22;;;;;;;10.63;6.20;;;;;;;6.15;69.38;100222.69;5032487;27;101235;-77
2023/01/12 07:09:47;;;;;;;11.15;5.53;;;;;;;6.25;69.72;100229.44;5048437;27;96853;-77
2023/01/12 07:12:13;;;;;;;15.88;5.82;;;;;;;6.11;69.36;100185.41;5042106;27;98519;-77
2023/01/12 07:14:38;;;;;;;20.40;7.67;;;;;;;6.48;69.14;100221.22;5039707;27;101617;-78
2023/01/12 07:17:04;;;;;;;24.13;6.80;;;;;;;6.61;68.93;100227.94;5032039;27;101026;-78
2023/01/12 07:19:29;;;;;;;18.08;5.25;;;;;;;6.70;68.17;100219.91;5049074;27;97022;-77
2023/01/12 07:21:55;;;;;;;21.33;6.10;;;;;;;6.76;67.66;100211.97;5042914;27;98281;-77
2023/01/12 07:24:20;;;;;;;15.95;4.93;;;;;;;6.82;67.59;100221.41;5032943;27;101044;-77
2023/01/12 07:26:49;;;;;;;17.25;5.00;;;;;;;6.74;67.25;100216.34;5063172;27;97483;-76
2023/01/12 07:29:15;;;;;;;13.02;4.60;;;;;;;6.81;67.44;100222.31;5031751;27;96826;-77
2023/01/12 07:31:41;;;;;;;9.63;4.40;;;;;;;6.87;66.71;100229.16;5075093;27;96935;-76
2023/01/12 07:34:06;;;;;;;9.98;4.72;;;;;;;6.71;67.39;100226.84;5065932;27;97860;-77
2023/01/12 07:36:32;;;;;;;11.48;6.13;;;;;;;6.67;67.51;100234.78;5052296;27;100568;-76
2023/01/12 07:38:57;;;;;;;10.68;5.72;;;;;;;6.74;67.43;100226.78;5072868;27;97122;-75
2023/01/12 07:44:08;;;;;;;13.20;6.13;;;;;;;6.70;67.00;100232.09;5062099;27;101494;-76
2023/01/12 07:46:33;;;;;;;11.65;4.97;;;;;;;6.73;67.13;100240.72;5063759;27;101335;-74
2023/01/12 07:48:59;;;;;;;11.68;5.07;;;;;;;6.77;67.24;100241.50;5057143;27;97774;-74
2023/01/12 07:51:25;;;;;;;12.57;5.30;;;;;;;6.67;67.18;100206.09;5048207;27;97424;-78
2023/01/12 07:53:50;;;;;;;10.20;4.95;;;;;;;6.79;66.87;100204.06;5064733;27;97563;-76
2023/01/12 07:56:16;;;;;;;10.93;5.40;;;;;;;7.05;66.62;100225.31;5051400;27;100908;-76
2023/01/12 07:58:42;;;;;;;12.20;4.88;;;;;;;7.15;66.58;100216.38;5058356;27;97544;-76
2023/01/12 08:01:08;;;;;;;11.70;4.87;;;;;;;7.35;66.69;100210.72;5059177;27;97355;-78
2023/01/12 08:03:33;;;;;;;12.05;5.35;;;;;;;7.76;66.29;100219.34;5065835;27;97903;-76
2023/01/12 08:05:59;;;;;;;10.43;5.20;;;;;;;8.22;64.91;100226.06;5043879;27;101483;-76
2023/01/12 08:08:25;;;;;;;17.80;7.63;;;;;;;8.50;63.67;100224.47;5048308;27;96989;-76
2023/01/12 08:10:50;;;;;;;16.77;7.40;;;;;;;8.72;63.31;100210.78;5058800;27;96909;-76
2023/01/12 08:13:17;;;;;;;25.38;10.95;;;;;;;8.99;62.13;100217.00;5041616;27;100670;-76
2023/01/12 08:15:45;;;;;;;31.05;13.70;;;;;;;9.00;62.25;100205.63;5050510;27;98365;-76
2023/01/12 08:18:16;;;;;;;15.13;9.10;;;;;;;9.15;62.11;100207.78;5036155;27;98118;-77
2023/01/12 08:20:42;;;;;;;12.43;4.85;;;;;;;9.39;61.32;100211.41;5039932;27;96954;-75
2023/01/12 08:23:33;;;;;;;8.07;3.80;;;;;;;9.55;60.54;100208.31;5051489;27;101376;-78
2023/01/12 08:26:03;;;;;;;11.15;4.32;;;;;;;9.66;60.30;100216.72;5052718;27;97364;-77
2023/01/12 08:28:39;;;;;;;11.02;3.88;;;;;;;9.84;60.13;100210.88;5031871;27;96946;-76
2023/01/12 08:31:09;;;;;;;12.32;4.18;;;;;;;10.13;59.56;100215.13;5052886;27;96685;-76
2023/01/12 08:33:36;;;;;;;18.95;5.13;;;;;;;10.21;58.79;100193.91;5041940;27;101591;-76
2023/01/12 08:36:03;;;;;;;12.85;3.97;;;;;;;10.49;58.66;100212.19;5045344;27;101381;-76
2023/01/12 08:38:29;;;;;;;7.90;3.35;;;;;;;10.66;57.74;100216.81;5055348;27;98097;-76
2023/01/12 08:46:23;;;;;;;6.43;2.50;;;;;;;11.16;55.86;100213.25;5050898;27;101159;-78
2023/01/12 08:48:48;;;;;;;7.50;2.40;;;;;;;11.31;56.49;100221.41;5054888;27;96726;-76
2023/01/12 08:51:14;;;;;;;10.05;3.05;;;;;;;11.45;55.99;100209.50;5034881;27;97252;-77
2023/01/12 08:53:39;;;;;;;5.80;2.65;;;;;;;11.61;55.13;100215.00;5051617;27;97611;-75
2023/01/12 08:56:05;;;;;;;6.68;2.45;;;;;;;11.64;54.91;100213.09;5069062;27;98160;-75
2023/01/12 08:58:31;;;;;;;7.55;2.33;;;;;;;11.72;54.81;100197.88;5043040;27;97350;-76
2023/01/12 09:00:57;;;;;;;8.18;2.40;;;;;;;11.88;54.31;100210.44;5048090;27;97004;-75
2023/01/12 09:03:22;;;;;;;6.05;2.70;;;;;;;12.03;53.65;100215.03;5066706;27;97840;-76
2023/01/12 09:05:48;;;;;;;5.82;2.30;;;;;;;12.08;53.47;100207.81;5059716;27;101343;-76
2023/01/12 09:08:14;;;;;;;8.60;2.55;;;;;;;12.17;53.11;100210.06;5044128;27;97720;-76
2023/01/12 09:10:39;;;;;;;8.68;2.70;;;;;;;12.23;53.94;100214.22;5054048;27;97279;-76
2023/01/12 09:13:05;;;;;;;6.35;1.95;;;;;;;12.24;53.26;100206.25;5069366;27;97437;-76
2023/01/12 09:15:30;;;;;;;11.70;2.60;;;;;;;12.38;52.75;100220.59;5030598;27;101377;-75
2023/01/12 09:17:56;;;;;;;5.97;2.25;;;;;;;12.52;53.38;100209.47;5056217;27;96828;-75
2023/01/12 09:20:21;;;;;;;6.20;2.08;;;;;;;12.66;52.22;100207.94;5039988;27;96974;-76
2023/01/12 09:22:47;;;;;;;10.02;2.40;;;;;;;12.65;51.03;100211.50;5050463;27;98017;-77
2023/01/12 09:25:13;;;;;;;7.55;2.35;;;;;;;12.56;52.19;100209.25;5037472;27;99253;-75
2023/01/12 09:27:38;;;;;;;8.07;2.45;;;;;;;12.75;52.54;100203.19;5039645;27;97178;-76
2023/01/12 09:30:05;;;;;;;7.13;2.47;;;;;;;12.85;51.41;100205.31;5021444;27;98446;-76
2023/01/12 09:32:31;;;;;;;6.82;2.03;;;;;;;12.84;51.57;100195.72;5047023;27;98084;-77
2023/01/12 09:34:58;;;;;;;7.05;2.00;;;;;;;12.94;51.63;100190.03;5051411;27;101735;-75
2023/01/12 09:37:24;;;;;;;7.72;2.53;;;;;;;13.19;51.36;100193.25;5049331;27;97601;-76
2023/01/12 09:39:50;;;;;;;5.72;2.10;;;;;;;13.38;50.56;100197.66;5047716;27;97369;-75
2023/01/12 09:48:02;;;;;;;7.03;2.55;;;;;;;13.51;50.01;100183.84;5053785;27;97319;-76
2023/01/12 09:50:32;;;;;;;5.70;2.08;;;;;;;13.69;50.19;100192.63;5024616;27;96923;-76
2023/01/12 09:53:16;;;;;;;4.95;2.15;;;;;;;13.93;48.99;100192.34;5071605;27;101061;-76
2023/01/12 09:56:01;;;;;;;9.82;2.72;;;;;;;13.74;48.99;100187.13;5058754;27;97950;-75
2023/01/12 09:58:52;;;;;;;6.72;2.08;;;;;;;13.71;48.06;100189.94;5031684;27;97204;-76
2023/01/12 10:01:19;;;;;;;3.97;2.00;;;;;;;13.35;49.46;100186.38;5048866;27;97192;-76
2023/01/12 10:03:44;;;;;;;5.30;2.33;;;;;;;12.99;49.51;100178.34;5006060;27;101088;-76
2023/01/12 10:06:16;;;;;;;7.18;2.13;;;;;;;12.90;49.67;100182.25;5023754;27;98345;-77
2023/01/12 10:08:44;;;;;;;10.13;3.08;;;;;;;12.73;50.70;100186.59;5004701;27;97139;-76
2023/01/12 10:11:10;;;;;;;7.63;2.28;;;;;;;12.66;50.65;100184.25;5011124;27;97162;-77
2023/01/12 10:13:49;;;;;;;4.70;2.13;;;;;;;12.68;51.32;100182.41;5022222;27;101591;-76
2023/01/12 10:16:33;;;;;;;8.98;2.63;;;;;;;12.89;50.73;100175.31;5017559;27;101735;-76
2023/01/12 10:19:01;;;;;;;10.70;2.38;;;;;;;12.98;51.35;100176.66;5012862;27;97214;-76
2023/01/12 10:21:28;;;;;;;4.15;2.30;;;;;;;13.03;49.85;100164.13;5025670;27;97391;-76
2023/01/12 10:23:54;;;;;;;6.13;2.28;;;;;;;13.05;50.43;100161.41;5000546;28;101615;-76
2023/01/12 10:26:23;;;;;;;7.15;2.53;;;;;;;12.86;50.86;100161.41;5009493;27;97608;-76
2023/01/12 10:28:51;;;;;;;10.48;2.72;;;;;;;12.69;51.52;100143.75;5021980;27;97266;-76
2023/01/12 10:31:22;;;;;;;8.40;2.65;;;;;;;12.84;51.69;100163.25;5015108;27;97378;-76
2023/01/12 10:34:05;;;;;;;7.97;2.67;;;;;;;12.69;51.12;100165.66;5023383;27;98025;-77
2023/01/12 10:36:33;;;;;;;5.50;2.45;;;;;;;12.56;52.00;100166.28;5045083;27;98500;-75
2023/01/12 10:39:02;;;;;;;8.95;2.80;;;;;;;12.50;52.44;100159.50;5013289;27;97405;-76
2023/01/12 10:41:30;;;;;;;7.63;2.55;;;;;;;12.38;52.38;100149.53;5011971;27;97441;-75
2023/01/12 10:43:58;;;;;;;7.95;2.90;;;;;;;12.24;52.48;100158.00;4994141;27;101385;-76
2023/01/12 10:46:27;;;;;;;5.43;2.17;;;;;;;12.20;52.24;100152.03;5034173;27;97839;-76
2023/01/12 10:48:54;;;;;;;6.47;2.22;;;;;;;12.11;52.61;100138.44;4993487;27;97686;-76
2023/01/12 10:51:28;;;;;;;9.70;2.72;;;;;;;12.23;51.92;100138.75;5021738;27;97524;-76
2023/01/12 10:53:55;;;;;;;6.88;2.45;;;;;;;12.26;52.47;100126.38;4995932;28;101545;-76
2023/01/12 10:56:25;;;;;;;7.22;2.38;;;;;;;12.30;51.69;100125.31;5024618;27;97902;-75
2023/01/12 10:58:53;;;;;;;7.70;2.30;;;;;;;12.24;51.89;100110.66;5024709;27;96858;-75
2023/01/12 11:01:20;;;;;;;10.90;2.35;;;;;;;12.18;52.06;100100.41;5024115;27;97133;-75
2023/01/12 11:03:45;;;;;;;9.65;2.85;;;;;;;12.17;51.96;100096.91;5015440;27;101192;-75
2023/01/12 11:06:15;;;;;;;9.77;2.10;;;;;;;12.08;52.33;100088.59;5009340;27;97389;-74
2023/01/12 11:08:41;;;;;;;6.65;2.08;;;;;;;12.11;52.42;100093.72;5023149;27;97308;-75
2023/01/12 11:11:34;;;;;;;7.03;2.10;;;;;;;12.03;52.46;100080.88;5010416;27;97409;-74
2023/01/12 11:14:01;;;;;;;30.15;3.78;;;;;;;12.04;52.08;100093.09;5017223;27;99929;-75
2023/01/12 11:16:47;;;;;;;15.02;2.65;;;;;;;11.94;52.47;100079.50;5007837;27;101403;-74
2023/01/12 11:19:16;;;;;;;8.35;2.33;;;;;;;11.90;52.71;100088.47;5009681;27;96798;-77
2023/01/12 11:21:49;;;;;;;7.60;2.30;;;;;;;11.88;53.15;100069.25;5008593;27;97210;-74
2023/01/12 11:24:23;;;;;;;11.25;2.63;;;;;;;11.90;53.09;100061.31;5000741;27;98119;-76
2023/01/12 11:27:09;;;;;;;28.67;4.65;;;;;;;11.69;52.68;100031.47;5043804;27;97699;-75
2023/01/12 11:29:55;;;;;;;6.53;2.35;;;;;;;11.76;53.61;100044.31;5009735;27;97254;-75
2023/01/12 11:32:23;;;;;;;10.65;4.28;;;;;;;11.76;53.34;100043.47;5016726;27;97337;-75
2023/01/12 11:34:57;;;;;;;11.80;2.33;;;;;;;11.70;53.80;100038.47;4998909;27;101173;-75
2023/01/12 11:37:23;;;;;;;14.15;2.30;;;;;;;11.73;53.62;100033.06;5008588;27;100905;-75
2023/01/12 11:39:59;;;;;;;10.48;2.15;;;;;;;11.62;53.83;100022.16;5020022;27;97203;-75
2023/01/12 11:45:33;;;;;;;9.20;2.95;;;;;;;11.68;54.28;100024.53;5049422;27;98030;-75
2023/01/12 11:48:03;;;;;;;10.18;2.33;;;;;;;11.62;53.84;100032.69;5041056;27;97560;-75
2023/01/12 11:50:33;;;;;;;8.05;3.05;;;;;;;11.52;54.00;100029.59;5013311;28;97100;-75
2023/01/12 11:52:58;;;;;;;11.23;2.10;;;;;;;11.42;53.82;100025.63;4999179;27;97473;-75
2023/01/12 11:55:30;;;;;;;7.65;2.33;;;;;;;11.46;53.97;100028.06;5016214;27;97598;-75
2023/01/12 11:58:05;;;;;;;;;;;;;;;11.31;54.21;100015.56;5019296;27;100970;-75
2023/01/12 12:00:39;;;;;;;7.55;2.30;;;;;;;11.32;53.95;100010.25;5031045;27;97162;-76
2023/01/12 12:03:17;;;;;;;8.30;2.10;;;;;;;11.29;54.03;100031.41;5035998;27;97954;-76
2023/01/12 12:06:09;;;;;;;9.52;1.90;;;;;;;11.21;54.27;100020.34;5063915;27;101138;-75
2023/01/12 12:08:41;;;;;;;7.32;1.98;;;;;;;11.20;53.84;100026.53;5054811;27;101203;-76
2023/01/12 12:11:13;;;;;;;6.15;1.90;;;;;;;11.24;54.26;100019.38;5048200;27;97279;-75
2023/01/12 12:14:07;;;;;;;11.68;2.35;;;;;;;11.18;53.42;100017.84;5061681;27;96868;-75